Time;durP1;ratioP1;P1;durP2;ratioP2;P2;SDS_P1;SDS_P2;PMS_P1;PMS_P2;Temp;Humidity;BMP_temperature;BMP_pressure;BME280_temperature;BME280_humidity;BME280_pressure;Samples;Min_cycle;Max_cycle;Signal;HPM_P1;HPM_P2
2022/08/25 00:00:18;;;;;;;11.32;5.28;;;22.70;99.90;;;;;;5032015;28;20042;-79
2022/08/25 00:02:44;;;;;;;6.70;4.88;;;22.70;99.90;;;;;;5028989;28;20042;-80
2022/08/25 00:05:09;;;;;;;11.77;5.40;;;22.60;99.90;;;;;;5050605;28;20482;-80
2022/08/25 00:07:35;;;;;;;9.98;4.88;;;22.70;99.90;;;;;;5014827;28;20076;-80
2022/08/25 00:10:02;;;;;;;8.20;4.90;;;22.60;99.90;;;;;;5021538;28;20042;-80
2022/08/25 00:12:27;;;;;;;7.30;5.00;;;22.60;99.90;;;;;;5034428;28;20147;-80
2022/08/25 00:14:53;;;;;;;7.88;4.68;;;22.60;99.90;;;;;;5033107;28;20477;-80
2022/08/25 00:17:19;;;;;;;7.20;4.43;;;22.60;99.90;;;;;;5039811;28;20051;-80
2022/08/25 00:19:45;;;;;;;11.05;4.28;;;22.60;99.90;;;;;;5039930;28;20037;-80
2022/08/25 00:22:10;;;;;;;10.07;4.75;;;22.60;99.90;;;;;;5040000;28;20046;-80
2022/08/25 00:24:36;;;;;;;9.60;4.40;;;22.60;99.90;;;;;;5035233;28;20045;-80
2022/08/25 00:27:03;;;;;;;10.52;4.57;;;22.60;99.90;;;;;;5042618;28;20106;-80
2022/08/25 00:29:29;;;;;;;8.45;4.10;;;22.60;99.90;;;;;;5040268;28;20096;-80
2022/08/25 00:31:56;;;;;;;8.27;4.20;;;22.80;99.90;;;;;;5041851;28;20077;-80
2022/08/25 00:34:26;;;;;;;7.40;4.10;;;22.50;99.90;;;;;;5036342;28;20041;-80
2022/08/25 00:36:52;;;;;;;7.38;4.00;;;22.50;99.90;;;;;;5034321;28;20121;-80
2022/08/25 00:39:20;;;;;;;9.90;4.03;;;22.50;99.90;;;;;;5035671;28;20041;-80
2022/08/25 00:41:47;;;;;;;9.88;4.03;;;22.50;99.90;;;;;;5034776;28;20128;-80
2022/08/25 00:44:16;;;;;;;8.38;3.55;;;22.50;99.90;;;;;;5034761;28;20103;-80
2022/08/25 00:46:49;;;;;;;7.85;4.10;;;22.50;99.90;;;;;;5035030;28;20108;-80
2022/08/25 00:49:23;;;;;;;7.85;3.88;;;22.50;99.90;;;;;;5033438;28;20065;-80
2022/08/25 00:52:19;;;;;;;7.10;4.03;;;22.40;99.90;;;;;;5035328;28;20053;-80
2022/08/25 00:54:49;;;;;;;9.00;4.20;;;22.40;99.90;;;;;;5034978;28;20041;-80
2022/08/25 00:57:21;;;;;;;9.30;4.00;;;22.40;99.90;;;;;;5035570;28;20045;-80
2022/08/25 00:59:47;;;;;;;8.27;4.20;;;22.40;99.90;;;;;;5036154;28;20124;-80
2022/08/25 01:02:15;;;;;;;9.88;3.92;;;22.40;99.90;;;;;;5035929;28;20430;-80
2022/08/25 01:04:42;;;;;;;7.40;3.75;;;22.40;99.90;;;;;;5034721;28;20175;-79
2022/08/25 01:07:08;;;;;;;8.30;3.92;;;22.40;99.90;;;;;;5032391;28;20556;-80
2022/08/25 01:09:34;;;;;;;10.35;3.92;;;22.40;99.90;;;;;;5030369;28;20041;-80
2022/08/25 01:12:00;;;;;;;10.27;3.78;;;22.40;99.90;;;;;;5034116;28;20033;-80
2022/08/25 01:14:27;;;;;;;9.63;4.25;;;22.40;99.90;;;;;;5037235;28;20564;-80
2022/08/25 01:16:53;;;;;;;9.38;3.63;;;22.40;99.90;;;;;;5036037;28;20106;-80
2022/08/25 01:19:20;;;;;;;10.05;3.95;;;22.40;99.90;;;;;;5036232;28;20038;-80
2022/08/25 01:21:49;;;;;;;11.30;3.97;;;22.40;99.90;;;;;;5026394;28;20414;-80
2022/08/25 01:24:41;;;;;;;7.45;3.67;;;22.30;99.90;;;;;;5033727;28;20060;-80
2022/08/25 01:27:06;;;;;;;13.27;4.22;;;22.30;99.90;;;;;;5035491;28;20050;-80
2022/08/25 01:29:33;;;;;;;7.68;3.75;;;22.30;99.90;;;;;;5035382;28;20057;-80
2022/08/25 01:32:02;;;;;;;7.50;3.72;;;22.30;99.90;;;;;;5033582;28;20038;-79
2022/08/25 01:34:32;;;;;;;9.55;3.88;;;22.20;99.90;;;;;;5035855;28;20085;-80
2022/08/25 01:36:59;;;;;;;7.10;3.83;;;22.20;99.90;;;;;;5035090;28;20061;-80
2022/08/25 01:39:27;;;;;;;8.38;3.70;;;22.20;99.90;;;;;;5034137;28;20059;-80
2022/08/25 01:42:04;;;;;;;8.50;3.58;;;22.20;99.90;;;;;;5034029;28;20037;-79
2022/08/25 01:44:32;;;;;;;8.98;3.78;;;22.20;99.90;;;;;;5029027;28;20049;-80
2022/08/25 01:46:58;;;;;;;8.63;3.72;;;22.20;99.90;;;;;;5043496;28;20040;-80
2022/08/25 01:49:23;;;;;;;7.88;3.78;;;22.20;99.90;;;;;;5038950;28;20042;-80
2022/08/25 01:51:59;;;;;;;8.50;3.80;;;22.10;99.90;;;;;;5036083;28;20053;-80
2022/08/25 01:54:24;;;;;;;9.95;3.80;;;22.10;99.90;;;;;;5046610;28;20128;-80
2022/08/25 01:56:50;;;;;;;8.75;3.67;;;22.10;99.90;;;;;;5038309;28;20524;-80
2022/08/25 01:59:20;;;;;;;6.32;3.58;;;22.10;99.90;;;;;;5035337;28;20068;-79
2022/08/25 02:01:46;;;;;;;7.55;3.90;;;22.00;99.90;;;;;;5029171;28;20041;-80
2022/08/25 02:04:11;;;;;;;8.95;3.50;;;22.00;99.90;;;;;;5022002;28;20045;-80
2022/08/25 02:06:37;;;;;;;7.47;3.58;;;22.00;99.90;;;;;;5034878;28;20037;-80
2022/08/25 02:09:12;;;;;;;9.48;3.88;;;22.00;99.90;;;;;;5034998;28;20395;-80
2022/08/25 02:11:39;;;;;;;;;;;21.90;99.90;;;;;;5019490;28;20120;-79
2022/08/25 02:14:05;;;;;;;11.07;4.13;;;21.90;99.90;;;;;;5022958;28;20031;-80
2022/08/25 02:16:34;;;;;;;8.63;4.07;;;21.90;99.90;;;;;;5034909;28;20445;-80
2022/08/25 02:19:00;;;;;;;9.55;4.15;;;21.80;99.90;;;;;;5033316;28;20033;-80
2022/08/25 02:21:26;;;;;;;8.38;3.80;;;21.80;99.90;;;;;;5032338;28;20178;-80
2022/08/25 02:23:52;;;;;;;5.97;3.47;;;21.80;99.90;;;;;;5033472;28;20040;-80
2022/08/25 02:26:18;;;;;;;9.10;3.60;;;21.80;99.90;;;;;;5034840;28;20470;-80
2022/08/25 02:28:49;;;;;;;11.60;4.00;;;21.80;99.90;;;;;;5034158;28;20077;-80
2022/08/25 02:31:16;;;;;;;7.80;3.60;;;21.70;99.90;;;;;;5033579;28;20442;-80
2022/08/25 02:33:42;;;;;;;7.78;3.80;;;21.70;99.90;;;;;;5033154;28;20048;-80
2022/08/25 02:36:08;;;;;;;7.90;3.72;;;21.80;99.90;;;;;;5034560;28;20037;-80
2022/08/25 02:38:35;;;;;;;7.28;3.53;;;21.60;99.90;;;;;;5034015;28;20060;-80
2022/08/25 02:41:07;;;;;;;7.82;4.00;;;21.60;99.90;;;;;;5034438;28;20046;-80
2022/08/25 02:43:32;;;;;;;6.60;3.78;;;21.60;99.90;;;;;;5033165;28;20045;-80
2022/08/25 02:45:58;;;;;;;7.50;3.70;;;21.60;99.90;;;;;;5034099;28;20044;-80
2022/08/25 02:48:24;;;;;;;7.80;3.60;;;21.50;99.90;;;;;;5033915;28;20049;-80
2022/08/25 02:50:51;;;;;;;7.75;3.60;;;21.50;99.90;;;;;;5034383;28;20053;-80
2022/08/25 02:53:18;;;;;;;7.97;3.63;;;21.50;99.90;;;;;;5031593;28;20041;-80
2022/08/25 02:55:45;;;;;;;8.63;3.60;;;21.50;99.90;;;;;;5034238;28;20049;-80
2022/08/25 02:58:10;;;;;;;8.27;3.67;;;21.50;99.90;;;;;;5033656;28;20050;-80
2022/08/25 03:00:37;;;;;;;8.27;3.80;;;21.40;99.90;;;;;;5033399;28;20548;-80
2022/08/25 03:03:05;;;;;;;9.02;3.70;;;21.40;99.90;;;;;;5037372;28;20514;-80
2022/08/25 03:05:31;;;;;;;10.82;3.60;;;21.80;99.90;;;;;;5040206;28;20041;-80
2022/08/25 03:07:56;;;;;;;11.55;3.95;;;21.40;99.90;;;;;;5029631;28;20155;-80
2022/08/25 03:10:22;;;;;;;9.07;3.67;;;21.40;99.90;;;;;;5014058;28;20637;-80
2022/08/25 03:12:48;;;;;;;7.25;3.63;;;21.40;99.90;;;;;;5019804;28;20045;-80
2022/08/25 03:15:15;;;;;;;7.63;3.90;;;21.30;99.90;;;;;;5013152;28;20375;-80
2022/08/25 03:17:43;;;;;;;8.75;3.85;;;21.30;99.90;;;;;;5030324;28;20045;-79
2022/08/25 03:20:09;;;;;;;8.07;3.72;;;21.30;99.90;;;;;;5033763;28;20063;-80
2022/08/25 03:22:35;;;;;;;10.20;3.78;;;21.20;99.90;;;;;;5033297;28;20124;-80
2022/08/25 03:27:48;;;;;;;10.65;4.18;;;21.20;99.90;;;;;;5033818;28;20053;-80
2022/08/25 03:30:14;;;;;;;12.23;3.80;;;21.20;99.90;;;;;;5031943;28;20049;-80
2022/08/25 03:32:40;;;;;;;8.63;3.72;;;21.20;99.90;;;;;;5015507;28;20048;-80
2022/08/25 03:35:06;;;;;;;7.47;3.90;;;21.20;99.90;;;;;;5032555;28;20041;-80
2022/08/25 03:37:32;;;;;;;8.68;3.60;;;21.10;99.90;;;;;;5033411;28;20037;-80
2022/08/25 03:39:58;;;;;;;10.38;4.10;;;21.10;99.90;;;;;;5033308;28;20049;-80
2022/08/25 03:42:24;;;;;;;7.30;3.75;;;21.10;99.90;;;;;;5033420;28;20042;-80
2022/08/25 03:44:50;;;;;;;8.20;3.67;;;21.10;99.90;;;;;;5032836;28;20402;-80
2022/08/25 03:47:15;;;;;;;8.45;4.22;;;21.10;99.90;;;;;;5025308;28;20041;-80
2022/08/25 03:49:41;;;;;;;6.57;3.60;;;21.10;99.90;;;;;;5016505;28;20058;-80
2022/08/25 03:52:06;;;;;;;13.18;4.00;;;21.00;99.90;;;;;;5031883;28;20049;-80
2022/08/25 03:54:32;;;;;;;9.13;4.05;;;21.00;99.90;;;;;;5032933;28;20057;-80
2022/08/25 03:56:57;;;;;;;7.13;3.95;;;21.00;99.90;;;;;;5033325;28;20042;-80
2022/08/25 03:59:24;;;;;;;6.85;4.00;;;21.00;99.90;;;;;;5032782;28;20468;-80
2022/08/25 04:01:50;;;;;;;7.40;3.80;;;20.90;99.90;;;;;;5028389;28;20033;-80
2022/08/25 04:04:16;;;;;;;9.25;4.18;;;20.90;99.90;;;;;;5031758;28;20041;-80
2022/08/25 04:06:43;;;;;;;8.88;3.88;;;20.90;99.90;;;;;;5032270;28;20096;-79
2022/08/25 04:09:10;;;;;;;11.43;4.40;;;20.80;99.90;;;;;;5033347;28;20124;-80
2022/08/25 04:11:35;;;;;;;8.18;3.92;;;21.10;99.90;;;;;;5032283;28;20045;-81
2022/08/25 04:14:02;;;;;;;10.93;4.30;;;20.80;99.90;;;;;;5033225;28;20046;-80
2022/08/25 04:16:30;;;;;;;10.55;4.20;;;20.80;99.90;;;;;;5032894;28;20042;-80
2022/08/25 04:18:58;;;;;;;9.57;4.10;;;20.70;99.90;;;;;;5033411;28;20081;-80
2022/08/25 04:21:25;;;;;;;10.07;4.22;;;21.20;99.90;;;;;;5031086;28;20072;-81
2022/08/25 04:23:52;;;;;;;11.90;4.03;;;20.70;99.90;;;;;;5032839;28;20120;-80
2022/08/25 04:26:21;;;;;;;10.18;4.03;;;20.70;99.90;;;;;;5033037;28;20046;-80
2022/08/25 04:28:48;;;;;;;10.63;4.60;;;20.70;99.90;;;;;;5015488;28;20091;-80
2022/08/25 04:31:15;;;;;;;13.88;5.65;;;20.70;99.90;;;;;;5032646;28;20505;-80
2022/08/25 04:33:41;;;;;;;15.27;5.88;;;20.70;99.90;;;;;;5032951;28;20126;-80
2022/08/25 04:36:10;;;;;;;16.17;6.55;;;20.70;99.90;;;;;;5033045;28;20092;-80
2022/08/25 04:38:37;;;;;;;14.57;5.97;;;20.60;99.90;;;;;;5023382;28;20093;-80
2022/08/25 04:41:04;;;;;;;12.45;6.47;;;20.60;99.90;;;;;;5023257;28;20045;-80
2022/08/25 04:43:31;;;;;;;18.02;6.28;;;20.60;99.90;;;;;;5032980;28;20041;-81
2022/08/25 04:45:57;;;;;;;10.88;6.13;;;21.00;99.90;;;;;;5032787;28;20088;-81
2022/08/25 04:48:25;;;;;;;14.93;5.75;;;20.70;99.90;;;;;;5029831;28;20076;-80
2022/08/25 04:50:51;;;;;;;13.80;5.90;;;20.60;99.90;;;;;;5031159;28;20418;-81
2022/08/25 04:53:17;;;;;;;13.75;5.97;;;20.50;99.90;;;;;;5031994;28;20038;-80
2022/08/25 04:55:46;;;;;;;10.27;5.20;;;20.50;99.90;;;;;;5033049;28;20096;-81
2022/08/25 04:58:15;;;;;;;11.55;5.30;;;20.50;99.90;;;;;;5035324;28;20041;-80
2022/08/25 05:00:41;;;;;;;11.98;5.47;;;20.50;99.90;;;;;;5035652;28;20040;-80
2022/08/25 05:03:07;;;;;;;11.68;5.35;;;20.90;99.90;;;;;;5036062;28;20029;-81
2022/08/25 05:05:35;;;;;;;12.25;5.32;;;20.50;99.90;;;;;;5035135;28;20195;-81
2022/08/25 05:08:02;;;;;;;10.80;5.43;;;20.60;99.90;;;;;;5036036;28;20077;-80
2022/08/25 05:10:27;;;;;;;12.32;5.57;;;20.60;99.90;;;;;;5035032;28;20133;-80
2022/08/25 05:12:53;;;;;;;11.38;5.50;;;20.50;99.90;;;;;;5035772;28;20085;-80
2022/08/25 05:18:03;;;;;;;11.63;6.03;;;20.60;99.90;;;;;;5035968;28;20057;-81
2022/08/25 05:20:29;;;;;;;12.05;5.60;;;20.60;99.90;;;;;;5022766;28;20127;-80
2022/08/25 05:22:57;;;;;;;12.38;5.38;;;20.60;99.90;;;;;;5035104;28;20447;-81
2022/08/25 05:25:22;;;;;;;13.85;5.63;;;20.60;99.90;;;;;;5036488;28;20435;-81
2022/08/25 05:27:48;;;;;;;11.70;6.05;;;20.60;99.90;;;;;;5036325;28;20044;-81
2022/08/25 05:30:14;;;;;;;11.02;5.43;;;20.60;99.90;;;;;;5018446;28;20141;-80
2022/08/25 05:32:40;;;;;;;15.40;5.82;;;20.60;99.90;;;;;;5036050;28;20056;-81
2022/08/25 05:35:06;;;;;;;12.43;5.43;;;20.60;99.90;;;;;;5035788;28;20045;-80
2022/08/25 05:37:33;;;;;;;12.73;6.25;;;20.70;99.90;;;;;;5034563;28;20049;-80
2022/08/25 05:39:59;;;;;;;13.20;5.40;;;20.70;99.90;;;;;;5035346;28;20056;-81
2022/08/25 05:42:27;;;;;;;11.77;6.25;;;20.70;99.90;;;;;;5035770;28;20056;-80
2022/08/25 05:44:53;;;;;;;14.07;6.07;;;20.70;99.90;;;;;;5034151;28;20049;-81
2022/08/25 05:47:18;;;;;;;16.38;5.85;;;20.70;99.90;;;;;;5035288;28;20037;-81
2022/08/25 05:49:44;;;;;;;12.52;5.78;;;20.70;99.90;;;;;;5035163;28;20099;-81
2022/08/25 05:52:09;;;;;;;12.20;6.18;;;20.70;99.90;;;;;;5034031;28;20479;-81
2022/08/25 05:54:36;;;;;;;12.00;6.05;;;20.70;99.90;;;;;;5035178;28;20049;-80
2022/08/25 05:57:02;;;;;;;13.20;6.20;;;20.80;99.90;;;;;;5033907;28;20092;-80
2022/08/25 05:59:29;;;;;;;9.13;5.93;;;20.90;99.90;;;;;;5034981;28;20081;-80
2022/08/25 06:04:39;;;;;;;10.10;6.00;;;21.00;99.90;;;;;;5027709;28;20045;-80
2022/08/25 06:07:04;;;;;;;16.98;5.97;;;21.00;99.90;;;;;;5034650;28;20044;-80
2022/08/25 06:09:30;;;;;;;12.30;5.85;;;21.00;99.90;;;;;;5033414;28;20140;-81
2022/08/25 06:11:56;;;;;;;13.48;6.03;;;21.10;99.90;;;;;;5035240;28;20040;-80
2022/08/25 06:14:22;;;;;;;13.27;6.38;;;21.10;99.90;;;;;;5035265;28;20144;-81
2022/08/25 06:16:50;;;;;;;10.70;6.57;;;21.20;99.90;;;;;;5034372;28;20094;-80
2022/08/25 06:19:16;;;;;;;12.55;6.30;;;21.20;99.90;;;;;;5035223;28;20398;-80
2022/08/25 06:21:42;;;;;;;15.45;6.70;;;21.30;99.90;;;;;;5033735;28;20041;-80
2022/08/25 06:24:09;;;;;;;12.32;6.43;;;21.30;99.90;;;;;;5033544;28;20128;-75
2022/08/25 06:26:36;;;;;;;12.13;6.47;;;21.40;99.90;;;;;;5016445;28;20052;-75
2022/08/25 06:29:02;;;;;;;15.85;6.80;;;21.50;99.90;;;;;;5033558;28;20401;-74
2022/08/25 06:31:28;;;;;;;13.57;6.05;;;21.50;99.90;;;;;;5033635;28;20045;-75
2022/08/25 06:33:53;;;;;;;13.32;6.43;;;21.60;99.90;;;;;;5028576;28;20037;-75
2022/08/25 06:36:19;;;;;;;13.82;6.75;;;21.60;99.90;;;;;;4996171;28;20049;-75
2022/08/25 06:38:46;;;;;;;12.05;6.03;;;22.10;99.90;;;;;;5018654;28;20055;-74
2022/08/25 06:41:13;;;;;;;12.13;6.22;;;21.80;99.90;;;;;;5032226;28;20049;-75
2022/08/25 06:43:41;;;;;;;14.77;6.70;;;21.80;99.90;;;;;;5037091;28;20041;-74
2022/08/25 06:46:11;;;;;;;17.83;6.50;;;21.80;99.90;;;;;;5032811;28;20116;-75
2022/08/25 06:48:37;;;;;;;15.68;6.80;;;22.00;99.90;;;;;;5029449;28;20053;-74
2022/08/25 06:51:07;;;;;;;15.15;6.47;;;22.10;99.90;;;;;;5031090;28;20048;-75
2022/08/25 06:53:33;;;;;;;16.08;6.40;;;22.20;99.90;;;;;;5032130;28;20038;-76
2022/08/25 06:55:59;;;;;;;11.70;6.03;;;22.20;99.90;;;;;;5027866;28;20069;-76
2022/08/25 06:58:25;;;;;;;11.60;5.78;;;22.30;99.90;;;;;;5031266;28;20445;-76
2022/08/25 07:00:51;;;;;;;14.93;5.97;;;22.40;99.90;;;;;;5032066;28;21689;-75
2022/08/25 07:03:17;;;;;;;13.43;6.43;;;22.50;99.90;;;;;;5033328;28;20129;-75
2022/08/25 07:05:51;;;;;;;12.35;6.10;;;22.60;99.90;;;;;;5032775;28;20068;-75
2022/08/25 07:08:16;;;;;;;14.13;6.22;;;22.60;99.90;;;;;;5033382;28;20042;-75
2022/08/25 07:10:42;;;;;;;17.55;5.90;;;22.60;99.90;;;;;;5032431;28;20048;-75
2022/08/25 07:13:07;;;;;;;12.38;6.03;;;22.80;99.90;;;;;;5031969;28;20173;-74
2022/08/25 07:15:37;;;;;;;11.25;5.65;;;22.90;99.90;;;;;;5033775;28;20478;-75
2022/08/25 07:18:03;;;;;;;16.48;6.10;;;23.10;99.90;;;;;;5032508;28;20037;-76
2022/08/25 07:20:30;;;;;;;11.60;5.80;;;23.20;99.90;;;;;;5033346;28;20072;-76
2022/08/25 07:22:56;;;;;;;11.48;6.55;;;23.30;99.90;;;;;;5035976;28;20052;-75
2022/08/25 07:25:22;;;;;;;11.95;5.85;;;23.40;99.90;;;;;;5031895;28;20045;-76
2022/08/25 07:27:48;;;;;;;11.98;5.95;;;23.50;99.90;;;;;;5037606;28;20086;-75
2022/08/25 07:30:15;;;;;;;9.93;5.72;;;23.60;99.90;;;;;;5025082;28;20042;-75
2022/08/25 07:32:41;;;;;;;10.05;5.65;;;23.70;99.90;;;;;;5012067;28;20140;-75
2022/08/25 07:35:16;;;;;;;13.30;5.90;;;23.70;99.90;;;;;;5013642;28;20037;-75
2022/08/25 07:37:51;;;;;;;14.85;5.70;;;23.80;99.90;;;;;;5028402;28;20056;-75
2022/08/25 07:40:21;;;;;;;11.95;5.60;;;23.80;99.90;;;;;;5009816;28;20053;-75
2022/08/25 07:42:48;;;;;;;11.60;5.88;;;23.80;99.90;;;;;;5033566;28;20045;-74
2022/08/25 07:45:15;;;;;;;12.93;5.55;;;23.80;99.90;;;;;;5049162;28;20041;-75
2022/08/25 07:47:40;;;;;;;13.02;5.97;;;23.90;99.90;;;;;;5041986;28;20163;-75
2022/08/25 07:50:09;;;;;;;9.73;5.43;;;24.00;99.90;;;;;;5032608;28;20552;-75
2022/08/25 07:52:35;;;;;;;12.90;5.97;;;24.10;99.90;;;;;;5032890;28;20056;-76
2022/08/25 07:55:01;;;;;;;12.93;6.00;;;24.10;99.90;;;;;;5041785;28;20045;-75
2022/08/25 07:57:28;;;;;;;13.43;5.85;;;24.10;99.90;;;;;;5046289;28;20048;-76
2022/08/25 07:59:55;;;;;;;13.68;5.85;;;24.10;99.90;;;;;;5031724;28;20053;-76
2022/08/25 08:02:21;;;;;;;10.55;5.10;;;24.20;99.90;;;;;;5033840;28;20099;-74
2022/08/25 08:04:49;;;;;;;9.65;4.90;;;24.20;99.90;;;;;;5033259;28;20042;-76
2022/08/25 08:07:19;;;;;;;8.80;5.65;;;24.30;99.90;;;;;;5033186;28;20034;-76
2022/08/25 08:09:49;;;;;;;10.10;5.32;;;24.40;99.90;;;;;;5033848;28;20049;-75
2022/08/25 08:12:14;;;;;;;10.93;5.50;;;24.40;99.90;;;;;;5032106;28;20064;-75
2022/08/25 08:14:40;;;;;;;7.97;5.13;;;24.50;99.90;;;;;;5031231;28;20029;-77
2022/08/25 08:17:09;;;;;;;9.25;4.88;;;24.50;99.90;;;;;;5025033;28;20045;-78
2022/08/25 08:19:36;;;;;;;10.60;4.65;;;24.60;99.90;;;;;;5029251;28;20053;-77
2022/08/25 08:22:14;;;;;;;10.35;4.97;;;24.70;99.90;;;;;;5031686;28;20123;-75
2022/08/25 08:24:43;;;;;;;9.70;4.60;;;24.80;99.90;;;;;;5031349;28;20064;-75
2022/08/25 08:27:09;;;;;;;8.70;4.53;;;24.90;99.90;;;;;;5032480;28;20362;-77
2022/08/25 08:29:36;;;;;;;8.00;4.30;;;25.00;99.90;;;;;;5028423;28;20446;-77
2022/08/25 08:32:04;;;;;;;13.25;4.80;;;25.20;99.90;;;;;;5027687;28;20045;-76
2022/08/25 08:34:30;;;;;;;9.25;4.47;;;25.30;99.90;;;;;;5034566;28;20045;-76
2022/08/25 08:36:56;;;;;;;7.95;4.35;;;25.40;99.90;;;;;;5016423;28;20073;-77
2022/08/25 08:39:22;;;;;;;10.95;4.95;;;25.50;99.90;;;;;;5034524;28;20410;-77
2022/08/25 08:42:15;;;;;;;7.82;4.53;;;25.70;99.90;;;;;;5036128;28;20124;-77
2022/08/25 08:44:44;;;;;;;8.15;4.60;;;25.80;99.90;;;;;;5035304;28;20405;-77
2022/08/25 08:47:41;;;;;;;9.73;4.30;;;26.00;99.90;;;;;;5036136;28;20103;-76
2022/08/25 08:50:25;;;;;;;9.32;4.30;;;26.10;99.90;;;;;;5035140;28;20049;-76
2022/08/25 08:53:06;;;;;;;10.77;4.43;;;26.30;99.90;;;;;;5031828;28;20107;-76
2022/08/25 08:55:33;;;;;;;12.57;4.53;;;26.50;99.90;;;;;;5035379;28;20052;-77
2022/08/25 08:58:03;;;;;;;7.18;4.35;;;26.60;99.90;;;;;;5031309;28;20049;-75
2022/08/25 09:00:31;;;;;;;9.75;4.47;;;26.80;99.90;;;;;;5027920;28;20485;-76
2022/08/25 09:03:08;;;;;;;6.55;3.88;;;27.00;99.90;;;;;;5034331;28;20041;-83
2022/08/25 09:05:45;;;;;;;9.00;3.80;;;27.30;99.90;;;;;;5034546;28;21336;-80
2022/08/25 09:08:13;;;;;;;9.85;4.25;;;27.60;99.90;;;;;;5035016;28;20053;-87
2022/08/25 09:11:16;;;;;;;6.55;4.53;;;27.90;99.90;;;;;;5046602;28;20046;-82
2022/08/25 09:13:53;;;;;;;13.48;4.40;;;29.10;99.90;;;;;;5036036;28;20513;-82
2022/08/25 09:16:55;;;;;;;11.60;3.90;;;32.60;97.70;;;;;;5038607;28;20064;-86
2022/08/25 09:19:48;;;;;;;9.48;4.20;;;35.30;95.10;;;;;;5035225;28;20132;-85
2022/08/25 09:22:33;;;;;;;9.20;3.58;;;37.80;92.20;;;;;;5046948;28;20084;-83
2022/08/25 09:25:20;;;;;;;8.63;3.53;;;38.70;91.60;;;;;;5054675;28;20049;-83
2022/08/25 09:28:07;;;;;;;7.75;3.42;;;39.00;90.00;;;;;;5026530;28;20088;-83
2022/08/25 09:30:48;;;;;;;7.47;3.63;;;40.30;89.60;;;;;;5035830;28;20046;-83
2022/08/25 09:33:20;;;;;;;7.65;3.20;;;41.70;85.00;;;;;;5036917;28;20037;-81
2022/08/25 09:35:47;;;;;;;7.72;3.10;;;42.70;82.00;;;;;;5036862;28;20041;-83
2022/08/25 09:38:13;;;;;;;6.68;3.40;;;43.90;81.60;;;;;;5035572;28;20148;-81
2022/08/25 09:40:46;;;;;;;15.00;3.80;;;44.90;78.00;;;;;;5035235;28;20048;-70
2022/08/25 09:43:39;;;;;;;8.55;3.13;;;45.20;79.00;;;;;;5032989;28;20044;-72
2022/08/25 09:46:09;;;;;;;7.90;3.00;;;45.60;76.80;;;;;;5021740;28;20053;-71
2022/08/25 09:48:56;;;;;;;6.78;2.97;;;46.00;75.10;;;;;;5031199;28;20151;-71
2022/08/25 09:51:31;;;;;;;9.57;2.85;;;46.10;72.60;;;;;;5034091;28;20133;-72
2022/08/25 09:54:15;;;;;;;7.45;2.70;;;46.60;70.60;;;;;;5034440;28;20524;-71
2022/08/25 09:56:55;;;;;;;5.05;2.20;;;46.30;69.10;;;;;;5034312;28;20077;-71
2022/08/25 09:59:25;;;;;;;5.32;2.40;;;44.60;66.80;;;;;;5033419;28;20049;-71
2022/08/25 10:01:59;;;;;;;9.73;2.90;;;42.80;67.80;;;;;;5033266;28;20447;-72
2022/08/25 10:04:36;;;;;;;5.63;2.50;;;41.30;67.50;;;;;;5034310;28;20060;-70
2022/08/25 10:07:17;;;;;;;7.35;2.60;;;39.70;68.50;;;;;;5012983;28;20343;-71
2022/08/25 10:10:00;;;;;;;7.55;3.00;;;38.70;69.20;;;;;;5016212;28;20052;-70
2022/08/25 10:12:29;;;;;;;6.80;2.60;;;37.90;69.30;;;;;;5030120;28;20038;-70
2022/08/25 10:14:55;;;;;;;8.18;2.30;;;37.20;69.80;;;;;;5028660;28;20119;-70
2022/08/25 10:17:30;;;;;;;7.60;2.67;;;36.60;70.20;;;;;;5032960;28;20045;-70
2022/08/25 10:20:08;;;;;;;8.90;2.80;;;36.10;70.90;;;;;;5027880;28;20104;-71
2022/08/25 10:22:35;;;;;;;6.50;2.70;;;35.80;71.90;;;;;;5029256;28;20101;-70
2022/08/25 10:25:02;;;;;;;8.65;2.85;;;35.50;71.50;;;;;;5019801;28;20121;-70
2022/08/25 10:27:37;;;;;;;14.05;3.40;;;35.20;71.50;;;;;;5013921;28;20042;-70
2022/08/25 10:30:16;;;;;;;6.53;2.80;;;34.80;72.70;;;;;;5022803;28;20049;-70
2022/08/25 10:32:53;;;;;;;10.13;2.80;;;34.40;73.70;;;;;;5033649;28;20083;-70
2022/08/25 10:35:25;;;;;;;7.70;2.80;;;34.20;73.90;;;;;;5031837;28;20544;-70
2022/08/25 10:38:33;;;;;;;7.18;3.00;;;34.40;73.10;;;;;;5031296;28;20324;-70
2022/08/25 10:41:05;;;;;;;7.97;2.67;;;34.30;73.20;;;;;;5033342;28;20041;-70
2022/08/25 10:43:48;;;;;;;6.60;2.97;;;34.00;74.20;;;;;;5031278;28;20048;-70
2022/08/25 10:46:49;;;;;;;6.03;2.90;;;34.10;73.80;;;;;;5008801;28;20050;-71
2022/08/25 10:49:19;;;;;;;9.75;2.60;;;34.10;74.10;;;;;;5012431;28;20054;-70
2022/08/25 10:52:15;;;;;;;5.15;2.70;;;34.10;72.10;;;;;;5045413;28;20046;-70
2022/08/25 10:55:04;;;;;;;9.48;2.90;;;34.30;72.90;;;;;;5029059;28;20049;-69
2022/08/25 10:57:42;;;;;;;6.25;2.60;;;34.60;72.80;;;;;;5030237;28;20060;-70
2022/08/25 11:00:17;;;;;;;3.78;2.35;;;34.80;71.90;;;;;;5032973;28;20446;-70
2022/08/25 11:02:58;;;;;;;7.32;3.03;;;34.80;72.10;;;;;;5031493;28;20045;-70
2022/08/25 11:05:54;;;;;;;9.02;2.75;;;34.70;72.80;;;;;;5030868;28;20464;-70
2022/08/25 11:08:41;;;;;;;6.90;2.45;;;34.60;73.80;;;;;;5031443;28;20057;-70
2022/08/25 11:11:37;;;;;;;7.47;2.90;;;34.80;73.50;;;;;;5031617;28;20068;-70
2022/08/25 11:14:11;;;;;;;5.68;2.72;;;35.00;72.60;;;;;;5027763;28;20173;-70
2022/08/25 11:16:46;;;;;;;8.23;2.80;;;35.20;72.80;;;;;;5023141;28;20389;-71
2022/08/25 11:19:22;;;;;;;4.82;2.63;;;35.30;72.90;;;;;;5032199;28;20284;-70
2022/08/25 11:22:35;;;;;;;4.93;2.58;;;35.70;72.70;;;;;;5031232;28;20045;-70
2022/08/25 11:25:11;;;;;;;5.60;2.40;;;36.50;71.70;;;;;;5009892;28;20053;-70
2022/08/25 11:27:54;;;;;;;7.15;2.85;;;37.00;70.30;;;;;;5032896;28;20052;-70
2022/08/25 11:30:20;;;;;;;6.80;2.58;;;37.50;69.10;;;;;;5032908;28;20041;-70
2022/08/25 11:32:49;;;;;;;7.32;2.55;;;37.20;69.10;;;;;;5032924;28;20084;-70
2022/08/25 11:35:31;;;;;;;9.05;3.03;;;36.60;69.40;;;;;;5032382;28;20109;-70
2022/08/25 11:38:12;;;;;;;8.90;3.00;;;36.00;70.80;;;;;;5032512;28;20059;-70
2022/08/25 11:41:04;;;;;;;4.10;2.55;;;35.80;72.00;;;;;;5032730;28;20049;-70
2022/08/25 11:43:56;;;;;;;6.00;2.65;;;35.70;72.10;;;;;;5031351;28;20103;-70
2022/08/25 11:46:49;;;;;;;6.03;2.92;;;35.50;72.40;;;;;;5030240;28;20577;-70
2022/08/25 11:49:33;;;;;;;6.65;2.75;;;35.40;72.00;;;;;;5012878;28;20375;-70
2022/08/25 11:51:59;;;;;;;;;;;35.20;71.80;;;;;;5012833;28;20046;-71
2022/08/25 11:54:33;;;;;;;8.02;2.67;;;35.00;70.80;;;;;;5012572;28;20005;-70
2022/08/25 11:57:22;;;;;;;4.38;2.58;;;34.90;72.30;;;;;;5011326;28;20103;-70
2022/08/25 11:59:51;;;;;;;7.18;2.78;;;35.20;70.30;;;;;;5011519;28;20042;-70
2022/08/25 12:02:35;;;;;;;10.38;2.65;;;35.60;70.60;;;;;;5011441;28;20046;-71
2022/08/25 12:05:05;;;;;;;5.05;2.38;;;36.20;70.30;;;;;;5011821;28;20509;-71
2022/08/25 12:08:37;;;;;;;5.53;2.63;;;37.00;69.70;;;;;;5010578;28;20426;-70
2022/08/25 12:10:55;;;;;;;6.57;2.50;;;38.70;67.20;;;;;;5012550;28;20054;-70
2022/08/25 12:13:41;;;;;;;6.22;2.42;;;40.20;67.30;;;;;;5012198;28;20046;-71
2022/08/25 12:16:35;;;;;;;10.20;2.53;;;41.60;65.40;;;;;;5012204;28;20065;-68
2022/08/25 12:19:25;;;;;;;7.75;2.40;;;42.80;63.90;;;;;;5012951;28;20061;-69
2022/08/25 12:21:53;;;;;;;4.25;2.30;;;43.60;62.60;;;;;;5012230;28;20042;-68
2022/08/25 12:24:44;;;;;;;7.20;2.55;;;44.20;62.50;;;;;;5012095;28;20121;-70
2022/08/25 12:27:42;;;;;;;8.52;2.40;;;44.60;62.30;;;;;;5011944;28;20121;-69
2022/08/25 12:30:29;;;;;;;4.95;2.38;;;44.70;61.70;;;;;;5012476;28;20156;-69
2022/08/25 12:33:14;;;;;;;6.85;2.22;;;43.30;60.60;;;;;;5028592;28;20048;-69
2022/08/25 12:36:02;;;;;;;6.97;2.35;;;41.20;60.50;;;;;;5029768;28;20081;-69
2022/08/25 12:38:47;;;;;;;6.80;2.58;;;39.30;62.20;;;;;;5026360;28;20045;-69
2022/08/25 12:41:18;;;;;;;7.55;2.58;;;37.70;63.20;;;;;;5029564;28;20045;-69
2022/08/25 12:43:46;;;;;;;7.35;2.72;;;36.70;63.50;;;;;;5028596;28;20033;-70
2022/08/25 12:46:30;;;;;;;7.03;2.58;;;35.80;63.70;;;;;;5028431;28;20082;-70
2022/08/25 12:49:05;;;;;;;7.97;2.90;;;35.10;64.80;;;;;;5025680;28;20517;-70
2022/08/25 12:51:53;;;;;;;5.80;2.55;;;34.60;65.50;;;;;;5026553;28;20053;-69
2022/08/25 12:54:43;;;;;;;5.63;2.60;;;34.30;66.20;;;;;;5030363;28;20366;-70
2022/08/25 12:57:32;;;;;;;5.93;2.60;;;34.10;67.00;;;;;;5028392;28;20553;-69
2022/08/25 13:00:05;;;;;;;4.82;2.50;;;34.10;67.20;;;;;;5025669;28;20052;-70
2022/08/25 13:02:46;;;;;;;5.03;2.63;;;34.10;66.70;;;;;;5030987;28;20327;-70
2022/08/25 13:05:25;;;;;;;7.03;2.50;;;33.90;66.90;;;;;;5030713;28;20045;-70
2022/08/25 13:08:19;;;;;;;6.22;2.83;;;33.80;66.80;;;;;;5028801;28;20120;-71
2022/08/25 13:11:03;;;;;;;6.68;2.50;;;33.60;67.30;;;;;;5031082;28;20123;-68
2022/08/25 13:13:43;;;;;;;5.47;2.55;;;33.70;66.60;;;;;;5031128;28;20367;-71